DAUG/GHA METAR and TAF weather

Enter ICAO airport designator
Station Type Date Time Source
DAUG METAR 2020/02/29 02:00 UTC NOAA

DAUG 290200Z 00000KT CAVOK 13/M06 Q1022


Station Type Date Time Source
DAUG Decoded METAR 2020/02/29 02:00 UTC NOAA

Ghardaia, Algeria (DAUG) 32-23N 003-49E 450M
Feb 28, 2020 - 09:00 PM EST / 2020.02.29 0200 UTC
Wind: Calm:0
Visibility: greater than 7 mile(s):0
Temperature: 55 F (13 C)
Dew Point: 21 F (-6 C)
Relative Humidity: 26%
Pressure (altimeter): 30.18 in. Hg (1022 hPa)
ob: DAUG 290200Z 00000KT CAVOK 13/M06 Q1022
cycle: 2

Station Type Date Time Source
DAUG TAF 2020/02/29 00:58 UTC NOAA

TAF DAUG 282300Z 2900/2924 VRB02KT CAVOK
BECMG 2909/2912 24010KT

Example: see airport list